createdAt,value
2017-03-12T00:00:02.997Z,3.68
2017-03-12T00:00:07.509Z,3.67
2017-03-12T00:00:12.019Z,3.67
2017-03-12T00:00:16.687Z,3.67
2017-03-12T00:00:21.041Z,3.67
2017-03-12T00:00:25.388Z,3.66
2017-03-12T00:00:30.030Z,3.67
2017-03-12T00:00:34.738Z,3.67
2017-03-12T00:00:39.394Z,3.67
2017-03-12T00:00:43.912Z,3.66
2017-03-12T00:00:48.572Z,3.67
2017-03-12T00:00:53.236Z,3.67
2017-03-12T00:00:57.918Z,3.66
2017-03-12T00:01:02.442Z,3.67
2017-03-12T00:01:07.086Z,3.67
2017-03-12T00:01:11.620Z,3.67
2017-03-12T00:01:16.307Z,3.66
2017-03-12T00:01:20.955Z,3.65
2017-03-12T00:01:25.465Z,3.66
2017-03-12T00:01:29.978Z,3.66
2017-03-12T00:01:34.650Z,3.65
2017-03-12T00:01:39.008Z,3.65
2017-03-12T00:01:43.660Z,3.65
2017-03-12T00:01:48.335Z,3.65
2017-03-12T00:01:52.997Z,3.64
2017-03-12T00:01:57.674Z,3.63
2017-03-12T00:02:02.187Z,3.65
2017-03-12T00:02:06.850Z,3.64
2017-03-12T00:02:11.349Z,3.63
2017-03-12T00:02:15.747Z,3.64
2017-03-12T00:02:20.396Z,3.63
2017-03-12T00:02:24.903Z,3.64
2017-03-12T00:02:29.412Z,3.63
2017-03-12T00:02:34.066Z,3.63
2017-03-12T00:02:38.583Z,3.63
2017-03-12T00:02:43.087Z,3.63
2017-03-12T00:02:47.748Z,3.62
2017-03-12T00:02:52.389Z,3.63
2017-03-12T00:02:57.060Z,3.62
2017-03-12T00:03:01.572Z,3.62
2017-03-12T00:03:06.222Z,3.61
2017-03-12T00:03:10.877Z,3.62
2017-03-12T00:03:15.566Z,3.62
2017-03-12T00:03:20.237Z,3.62
2017-03-12T00:03:24.736Z,3.62
2017-03-12T00:03:29.113Z,3.62
2017-03-12T00:03:33.605Z,3.62
2017-03-12T00:03:38.256Z,3.62
2017-03-12T00:03:42.767Z,3.61
2017-03-12T00:03:47.125Z,3.62
2017-03-12T00:03:51.638Z,3.62
2017-03-12T00:03:56.281Z,3.62
2017-03-12T00:04:00.795Z,3.61
2017-03-12T00:04:05.626Z,3.6
2017-03-12T00:04:10.109Z,3.61
2017-03-12T00:04:14.749Z,3.61
2017-03-12T00:04:19.273Z,3.61
2017-03-12T00:04:23.898Z,3.61
2017-03-12T00:04:28.264Z,3.6
2017-03-12T00:04:32.749Z,3.61
2017-03-12T00:04:37.426Z,3.61
2017-03-12T00:04:42.078Z,3.6
2017-03-12T00:04:46.713Z,3.61
2017-03-12T00:04:51.390Z,3.6
2017-03-12T00:04:55.909Z,3.61
2017-03-12T00:05:00.554Z,3.61
2017-03-12T00:05:05.060Z,3.6
2017-03-12T00:05:09.582Z,3.6
2017-03-12T00:05:14.226Z,3.6
2017-03-12T00:05:18.591Z,3.6
2017-03-12T00:05:23.142Z,3.6
2017-03-12T00:05:27.491Z,3.6
2017-03-12T00:05:32.005Z,3.59
2017-03-12T00:05:36.660Z,3.59
2017-03-12T00:05:41.150Z,3.6
2017-03-12T00:05:45.831Z,3.59
2017-03-12T00:05:50.484Z,3.59
2017-03-12T00:05:55.142Z,3.59
2017-03-12T00:05:59.678Z,3.59
2017-03-12T00:06:04.433Z,3.59
2017-03-12T00:06:08.799Z,3.6
2017-03-12T00:06:13.455Z,3.59
2017-03-12T00:06:18.115Z,3.59
2017-03-12T00:06:22.614Z,3.59
2017-03-12T00:06:27.296Z,3.59
2017-03-12T00:06:31.799Z,3.58
2017-03-12T00:06:36.442Z,3.58
2017-03-12T00:06:40.939Z,3.58
2017-03-12T00:06:45.575Z,3.58
2017-03-12T00:06:50.090Z,3.59
2017-03-12T00:06:54.740Z,3.58
2017-03-12T00:06:59.418Z,3.58
2017-03-12T00:07:04.274Z,3.57
2017-03-12T00:07:08.923Z,3.58
2017-03-12T00:07:13.593Z,3.58
2017-03-12T00:07:18.420Z,3.57
2017-03-12T00:07:23.105Z,3.57
2017-03-12T00:07:27.477Z,3.57
2017-03-12T00:07:31.963Z,3.58
2017-03-12T00:07:36.667Z,3.57
2017-03-12T00:07:41.171Z,3.56
2017-03-12T00:07:45.844Z,3.57
2017-03-12T00:07:50.347Z,3.57
2017-03-12T00:07:55.028Z,3.56
2017-03-12T00:07:59.695Z,3.57
2017-03-12T00:08:04.187Z,3.57
2017-03-12T00:08:08.874Z,3.56
2017-03-12T00:08:13.560Z,3.56
2017-03-12T00:08:18.257Z,3.56
2017-03-12T00:08:22.626Z,3.56
2017-03-12T00:08:27.121Z,3.56
2017-03-12T00:08:31.646Z,3.56
2017-03-12T00:08:36.309Z,3.56
2017-03-12T00:08:40.981Z,3.56
2017-03-12T00:08:45.656Z,3.55
2017-03-12T00:08:50.368Z,3.56
2017-03-12T00:08:55.037Z,3.55
2017-03-12T00:08:59.689Z,3.55
2017-03-12T00:09:04.545Z,3.56
2017-03-12T00:09:09.075Z,3.56
2017-03-12T00:09:13.746Z,3.56
2017-03-12T00:09:18.398Z,3.56
2017-03-12T00:09:22.755Z,3.57
2017-03-12T00:09:27.414Z,3.56
2017-03-12T00:09:31.781Z,3.56
2017-03-12T00:09:36.456Z,3.56
2017-03-12T00:09:41.112Z,3.56
2017-03-12T00:09:45.768Z,3.55
2017-03-12T00:09:50.433Z,3.56
2017-03-12T00:09:54.954Z,3.55
2017-03-12T00:09:59.596Z,3.55
2017-03-12T00:10:04.006Z,3.56
2017-03-12T00:10:08.363Z,3.56
2017-03-12T00:10:13.025Z,3.56
2017-03-12T00:10:17.682Z,3.55
2017-03-12T00:10:22.335Z,3.56
2017-03-12T00:10:26.867Z,3.56
2017-03-12T00:10:31.557Z,3.56
2017-03-12T00:10:36.048Z,3.55
2017-03-12T00:10:40.712Z,3.54
2017-03-12T00:10:45.067Z,3.55
2017-03-12T00:10:49.733Z,3.55
2017-03-12T00:10:54.395Z,3.54
2017-03-12T00:10:59.065Z,3.55
2017-03-12T00:11:03.717Z,3.54
2017-03-12T00:11:08.363Z,3.55
2017-03-12T00:11:12.862Z,3.54
2017-03-12T00:11:17.559Z,3.55
2017-03-12T00:11:22.071Z,3.54
2017-03-12T00:11:26.718Z,3.54
2017-03-12T00:11:31.087Z,3.54
2017-03-12T00:11:35.575Z,3.53
2017-03-12T00:11:40.079Z,3.53
2017-03-12T00:11:44.718Z,3.54
2017-03-12T00:11:49.245Z,3.54
2017-03-12T00:11:53.746Z,3.53
2017-03-12T00:11:58.399Z,3.53
2017-03-12T00:12:03.170Z,3.52
2017-03-12T00:12:07.686Z,3.53
2017-03-12T00:12:12.199Z,3.53
2017-03-12T00:12:16.866Z,3.53
2017-03-12T00:12:21.537Z,3.52
2017-03-12T00:12:26.053Z,3.53
2017-03-12T00:12:30.724Z,3.52
2017-03-12T00:12:35.387Z,3.52
2017-03-12T00:12:39.910Z,3.51
2017-03-12T00:12:44.588Z,3.52
2017-03-12T00:12:49.228Z,3.52
2017-03-12T00:12:53.883Z,3.51
2017-03-12T00:12:58.371Z,3.51
2017-03-12T00:13:03.047Z,3.51
2017-03-12T00:13:07.714Z,3.51
2017-03-12T00:13:12.357Z,3.51
2017-03-12T00:13:17.017Z,3.51
2017-03-12T00:13:21.657Z,3.5
2017-03-12T00:13:26.167Z,3.49
2017-03-12T00:13:30.820Z,3.5
2017-03-12T00:13:35.514Z,3.49
2017-03-12T00:13:40.168Z,3.5
2017-03-12T00:13:44.813Z,3.5
2017-03-12T00:13:49.334Z,3.49
2017-03-12T00:13:53.823Z,3.48
2017-03-12T00:13:58.466Z,3.49
2017-03-12T00:14:03.432Z,3.49
2017-03-12T00:14:08.079Z,3.48
2017-03-12T00:14:12.604Z,3.48
2017-03-12T00:14:17.253Z,3.49
2017-03-12T00:14:21.623Z,3.48
2017-03-12T00:14:25.976Z,3.48
2017-03-12T00:14:30.509Z,3.48
2017-03-12T00:14:35.047Z,3.47
2017-03-12T00:14:39.681Z,3.48
2017-03-12T00:14:44.332Z,3.46
2017-03-12T00:14:49.006Z,3.47
2017-03-12T00:14:53.652Z,3.47
2017-03-12T00:14:58.160Z,3.46
2017-03-12T00:15:02.671Z,3.46
2017-03-12T00:15:07.207Z,3.47
2017-03-12T00:15:11.890Z,3.46
2017-03-12T00:15:16.241Z,3.46
2017-03-12T00:15:20.594Z,3.46
2017-03-12T00:15:24.991Z,3.45
2017-03-12T00:15:29.649Z,3.45
2017-03-12T00:15:34.307Z,3.46
2017-03-12T00:15:38.955Z,3.45
2017-03-12T00:15:43.616Z,3.46
2017-03-12T00:15:48.264Z,3.45
2017-03-12T00:15:52.775Z,3.45
2017-03-12T00:15:57.434Z,3.45
2017-03-12T00:16:01.805Z,3.45
2017-03-12T00:16:06.176Z,3.44
2017-03-12T00:16:10.521Z,3.44
2017-03-12T00:16:15.159Z,3.44
2017-03-12T00:16:19.514Z,3.43
2017-03-12T00:16:23.993Z,3.43
2017-03-12T00:16:28.528Z,3.44
2017-03-12T00:16:33.182Z,3.43
2017-03-12T00:16:37.707Z,3.43
2017-03-12T00:16:42.224Z,3.43
2017-03-12T00:16:46.887Z,3.42
2017-03-12T00:16:51.405Z,3.43
2017-03-12T00:16:56.057Z,3.42
2017-03-12T00:17:00.697Z,3.42
2017-03-12T00:17:05.099Z,3.41
2017-03-12T00:17:09.775Z,3.41
2017-03-12T00:17:14.436Z,3.41
2017-03-12T00:17:19.097Z,3.41
2017-03-12T00:17:23.626Z,3.41
2017-03-12T00:17:28.282Z,3.4
2017-03-12T00:17:32.952Z,3.4
2017-03-12T00:17:37.470Z,3.41
2017-03-12T00:17:42.175Z,3.4
2017-03-12T00:17:46.679Z,3.4
2017-03-12T00:17:51.332Z,3.39
2017-03-12T00:17:56.009Z,3.39
2017-03-12T00:18:00.681Z,3.39
2017-03-12T00:18:05.640Z,3.39
2017-03-12T00:18:10.179Z,3.39
2017-03-12T00:18:14.836Z,3.39
2017-03-12T00:18:19.334Z,3.39
2017-03-12T00:18:23.857Z,3.37
2017-03-12T00:18:28.376Z,3.36
2017-03-12T00:18:33.040Z,3.37
2017-03-12T00:18:37.561Z,3.37
2017-03-12T00:18:42.221Z,3.36
2017-03-12T00:18:46.876Z,3.36
2017-03-12T00:18:51.530Z,3.36
2017-03-12T00:18:56.203Z,3.36
2017-03-12T00:19:00.892Z,3.35
2017-03-12T00:19:05.635Z,3.34
2017-03-12T00:19:10.286Z,3.34
2017-03-12T00:19:14.958Z,3.34
2017-03-12T00:19:19.495Z,3.34
2017-03-12T00:19:24.016Z,3.34
2017-03-12T00:19:28.558Z,3.34
2017-03-12T00:19:33.227Z,3.33
2017-03-12T00:19:37.721Z,3.33
2017-03-12T00:19:42.374Z,3.33
2017-03-12T00:19:47.028Z,3.33
2017-03-12T00:19:51.721Z,3.32
2017-03-12T00:19:56.286Z,3.32
2017-03-12T00:20:00.935Z,3.33
2017-03-12T00:20:05.179Z,3.32
2017-03-12T00:20:09.537Z,3.31
2017-03-12T00:20:14.195Z,3.31
2017-03-12T00:20:18.698Z,3.31
2017-03-12T00:20:23.207Z,3.31
2017-03-12T00:20:27.875Z,3.31
2017-03-12T00:20:32.544Z,3.3
2017-03-12T00:20:37.230Z,3.3
2017-03-12T00:20:41.948Z,3.3
2017-03-12T00:20:46.612Z,3.3
2017-03-12T00:20:51.260Z,3.29
2017-03-12T00:20:55.910Z,3.3
2017-03-12T00:21:00.576Z,3.29
2017-03-12T00:21:05.483Z,3.29
2017-03-12T00:21:10.123Z,3.28
2017-03-12T00:21:14.779Z,3.27
2017-03-12T00:21:19.287Z,3.28
2017-03-12T00:21:23.781Z,3.28
2017-03-12T00:21:28.445Z,3.27
2017-03-12T00:21:33.097Z,3.28
2017-03-12T00:21:37.609Z,3.27
2017-03-12T00:21:42.261Z,3.26
2017-03-12T00:21:46.910Z,3.27
2017-03-12T00:21:51.609Z,3.26
2017-03-12T00:21:56.255Z,3.26
2017-03-12T00:22:00.903Z,3.24
2017-03-12T00:22:05.780Z,3.26
2017-03-12T00:22:10.284Z,3.25
2017-03-12T00:22:14.946Z,3.25
2017-03-12T00:22:19.603Z,3.24
2017-03-12T00:22:24.299Z,3.25
2017-03-12T00:22:28.805Z,3.24
2017-03-12T00:22:33.313Z,3.23
2017-03-12T00:22:37.835Z,3.23
2017-03-12T00:22:42.351Z,3.22
2017-03-12T00:22:47.015Z,3.23
2017-03-12T00:22:51.689Z,3.23
2017-03-12T00:22:56.348Z,3.22
2017-03-12T00:23:01.008Z,3.22
2017-03-12T00:23:05.855Z,3.22
2017-03-12T00:23:10.535Z,3.22
2017-03-12T00:23:15.184Z,3.21
2017-03-12T00:23:19.687Z,3.21
2017-03-12T00:23:24.255Z,3.21
2017-03-12T00:23:28.799Z,3.21
2017-03-12T00:23:33.325Z,3.2
2017-03-12T00:23:37.730Z,3.21
2017-03-12T00:23:42.386Z,3.2
2017-03-12T00:23:47.030Z,3.2
2017-03-12T00:23:51.702Z,3.2
2017-03-12T00:23:56.348Z,3.19
2017-03-12T00:24:00.987Z,3.2
2017-03-12T00:24:05.659Z,3.2
2017-03-12T00:24:09.893Z,3.19
2017-03-12T00:24:14.559Z,3.19
2017-03-12T00:24:19.053Z,3.19
2017-03-12T00:24:23.551Z,3.19
2017-03-12T00:24:28.213Z,3.19
2017-03-12T00:24:32.881Z,3.19
2017-03-12T00:24:37.425Z,3.19
2017-03-12T00:24:42.097Z,3.19
2017-03-12T00:24:46.613Z,3.19
2017-03-12T00:24:51.251Z,3.17
2017-03-12T00:24:55.902Z,3.17
2017-03-12T00:25:00.568Z,3.18
2017-03-12T00:25:05.476Z,3.17
2017-03-12T00:25:09.987Z,3.18
2017-03-12T00:25:14.687Z,3.17
2017-03-12T00:25:19.192Z,3.17
2017-03-12T00:25:23.550Z,3.16
2017-03-12T00:25:28.076Z,3.16
2017-03-12T00:25:32.750Z,3.16
2017-03-12T00:25:36.989Z,3.16
2017-03-12T00:25:41.567Z,3.17
2017-03-12T00:25:46.219Z,3.16
2017-03-12T00:25:50.747Z,3.16
2017-03-12T00:25:55.404Z,3.16
2017-03-12T00:26:00.081Z,3.15
2017-03-12T00:26:04.460Z,3.15
2017-03-12T00:26:08.834Z,3.16
2017-03-12T00:26:13.482Z,3.15
2017-03-12T00:26:18.147Z,3.14
2017-03-12T00:26:22.507Z,3.14
2017-03-12T00:26:27.168Z,3.15
2017-03-12T00:26:31.670Z,3.14
2017-03-12T00:26:36.313Z,3.14
2017-03-12T00:26:40.974Z,3.14
2017-03-12T00:26:45.632Z,3.13
2017-03-12T00:26:50.122Z,3.14
2017-03-12T00:26:54.626Z,3.13
2017-03-12T00:26:59.295Z,3.14
2017-03-12T00:27:03.853Z,3.13
2017-03-12T00:27:08.359Z,3.12
2017-03-12T00:27:13.015Z,3.13
2017-03-12T00:27:17.671Z,3.12
2017-03-12T00:27:22.340Z,3.12
2017-03-12T00:27:26.992Z,3.12
2017-03-12T00:27:31.506Z,3.12
2017-03-12T00:27:36.046Z,3.11
2017-03-12T00:27:40.548Z,3.12
2017-03-12T00:27:45.259Z,3.12
2017-03-12T00:27:49.936Z,3.12
2017-03-12T00:27:54.476Z,3.1
2017-03-12T00:27:59.163Z,3.11
2017-03-12T00:28:04.232Z,3.1
2017-03-12T00:28:08.731Z,3.1
2017-03-12T00:28:13.361Z,3.1
2017-03-12T00:28:17.716Z,3.09
2017-03-12T00:28:22.369Z,3.1
2017-03-12T00:28:27.012Z,3.09
2017-03-12T00:28:31.669Z,3.09
2017-03-12T00:28:36.325Z,3.09
2017-03-12T00:28:40.867Z,3.09
2017-03-12T00:28:45.400Z,3.08
2017-03-12T00:28:50.038Z,3.08
2017-03-12T00:28:54.695Z,3.09
2017-03-12T00:28:59.369Z,3.08
2017-03-12T00:29:04.081Z,3.07
2017-03-12T00:29:08.745Z,3.08
2017-03-12T00:29:13.419Z,3.07
2017-03-12T00:29:17.935Z,3.07
2017-03-12T00:29:22.430Z,3.08
2017-03-12T00:29:27.068Z,3.07
2017-03-12T00:29:31.588Z,3.06
2017-03-12T00:29:35.941Z,3.07
2017-03-12T00:29:40.453Z,3.07
2017-03-12T00:29:45.102Z,3.06
2017-03-12T00:29:49.774Z,3.05
2017-03-12T00:29:54.299Z,3.06
2017-03-12T00:29:58.674Z,3.06
2017-03-12T00:30:03.380Z,3.05
2017-03-12T00:30:07.912Z,3.05
2017-03-12T00:30:12.434Z,3.05
2017-03-12T00:30:17.100Z,3.05
2017-03-12T00:30:21.762Z,3.05
2017-03-12T00:30:26.126Z,3.05
2017-03-12T00:30:30.482Z,3.06
2017-03-12T00:30:35.140Z,3.05
2017-03-12T00:30:39.660Z,3.05
2017-03-12T00:30:44.177Z,3.04
2017-03-12T00:30:48.688Z,3.05
2017-03-12T00:30:53.399Z,3.04
2017-03-12T00:30:58.057Z,3.05
2017-03-12T00:31:02.777Z,3.04
2017-03-12T00:31:07.426Z,3.04
2017-03-12T00:31:11.942Z,3.03
2017-03-12T00:31:16.582Z,3.03
2017-03-12T00:31:21.072Z,3.03
2017-03-12T00:31:25.560Z,3.03
2017-03-12T00:31:30.217Z,3.03
2017-03-12T00:31:34.860Z,3.03
2017-03-12T00:31:39.207Z,3.03
2017-03-12T00:31:43.884Z,3.03
2017-03-12T00:31:48.533Z,3.02
2017-03-12T00:31:53.153Z,3.03
2017-03-12T00:31:57.793Z,3.03
2017-03-12T00:32:02.567Z,3.02
2017-03-12T00:32:06.912Z,3.02
2017-03-12T00:32:11.264Z,3.02
2017-03-12T00:32:15.927Z,3.02
2017-03-12T00:32:20.420Z,3.02
2017-03-12T00:32:24.940Z,3.02
2017-03-12T00:32:29.287Z,3.02
2017-03-12T00:32:33.945Z,3.01
2017-03-12T00:32:38.473Z,3.02
2017-03-12T00:32:43.133Z,3.01
2017-03-12T00:32:47.816Z,3.01
2017-03-12T00:32:52.484Z,3.01
2017-03-12T00:32:57.194Z,3.01
2017-03-12T00:33:02.206Z,3.01
2017-03-12T00:33:06.737Z,3.01
2017-03-12T00:33:11.406Z,3.01
2017-03-12T00:33:15.908Z,3
2017-03-12T00:33:20.280Z,3
2017-03-12T00:33:24.675Z,3
2017-03-12T00:33:29.210Z,3
2017-03-12T00:33:33.892Z,3
2017-03-12T00:33:38.541Z,2.99
2017-03-12T00:33:43.201Z,2.99
2017-03-12T00:33:47.847Z,2.99
2017-03-12T00:33:52.519Z,2.99
2017-03-12T00:33:57.158Z,2.98
2017-03-12T00:34:01.819Z,2.98
2017-03-12T00:34:06.455Z,2.98
2017-03-12T00:34:10.844Z,2.98
2017-03-12T00:34:15.531Z,2.98
2017-03-12T00:34:20.198Z,2.97
2017-03-12T00:34:24.551Z,2.97
2017-03-12T00:34:29.049Z,2.97
2017-03-12T00:34:33.710Z,2.97
2017-03-12T00:34:38.379Z,2.97
2017-03-12T00:34:43.054Z,2.97
2017-03-12T00:34:47.729Z,2.96
2017-03-12T00:34:52.374Z,2.97
2017-03-12T00:34:57.038Z,2.96
2017-03-12T00:35:01.750Z,2.96
2017-03-12T00:35:06.264Z,2.96
2017-03-12T00:35:10.924Z,2.95
2017-03-12T00:35:15.588Z,2.96
2017-03-12T00:35:20.257Z,2.96
2017-03-12T00:35:24.755Z,2.95
2017-03-12T00:35:29.277Z,2.95
2017-03-12T00:35:33.937Z,2.96
2017-03-12T00:35:38.451Z,2.95
2017-03-12T00:35:42.955Z,2.95
2017-03-12T00:35:47.632Z,2.95
2017-03-12T00:35:52.147Z,2.95
2017-03-12T00:35:56.666Z,2.95
2017-03-12T00:36:01.318Z,2.95
2017-03-12T00:36:06.165Z,2.95
2017-03-12T00:36:10.513Z,2.95
2017-03-12T00:36:15.158Z,2.95
2017-03-12T00:36:19.792Z,2.95
2017-03-12T00:36:24.295Z,2.95
2017-03-12T00:36:28.945Z,2.95
2017-03-12T00:36:33.602Z,2.94
2017-03-12T00:36:38.255Z,2.95
2017-03-12T00:36:42.785Z,2.95
2017-03-12T00:36:47.309Z,2.94
2017-03-12T00:36:51.961Z,2.94
2017-03-12T00:36:56.625Z,2.95
2017-03-12T00:37:01.274Z,2.95
2017-03-12T00:37:06.145Z,2.95
2017-03-12T00:37:10.800Z,2.94
2017-03-12T00:37:15.476Z,2.94
2017-03-12T00:37:20.125Z,2.94
2017-03-12T00:37:24.647Z,2.95
2017-03-12T00:37:29.310Z,2.95
2017-03-12T00:37:33.834Z,2.94
2017-03-12T00:37:38.336Z,2.95
2017-03-12T00:37:42.978Z,2.94
2017-03-12T00:37:47.621Z,2.94
2017-03-12T00:37:52.023Z,2.94
2017-03-12T00:37:56.675Z,2.94
2017-03-12T00:38:01.175Z,2.94
2017-03-12T00:38:05.685Z,2.94
2017-03-12T00:38:09.916Z,2.94
2017-03-12T00:38:14.577Z,2.95
2017-03-12T00:38:19.248Z,2.95
2017-03-12T00:38:23.902Z,2.94
2017-03-12T00:38:28.266Z,2.94
2017-03-12T00:38:32.796Z,2.94
2017-03-12T00:38:37.445Z,2.95
2017-03-12T00:38:41.817Z,2.95
2017-03-12T00:38:46.479Z,2.95
2017-03-12T00:38:51.182Z,2.94
2017-03-12T00:38:55.833Z,2.94
2017-03-12T00:39:00.497Z,2.94
2017-03-12T00:39:05.181Z,2.94
2017-03-12T00:39:09.698Z,2.95
2017-03-12T00:39:14.345Z,2.94
2017-03-12T00:39:18.986Z,2.94
2017-03-12T00:39:23.498Z,2.94
2017-03-12T00:39:28.023Z,2.94
2017-03-12T00:39:32.531Z,2.93
2017-03-12T00:39:37.045Z,2.94
2017-03-12T00:39:41.731Z,2.94
2017-03-12T00:39:46.398Z,2.95
2017-03-12T00:39:50.902Z,2.94
2017-03-12T00:39:55.562Z,2.95
2017-03-12T00:40:00.222Z,2.94
2017-03-12T00:40:04.884Z,2.94
2017-03-12T00:40:09.541Z,2.95
2017-03-12T00:40:14.229Z,2.95
2017-03-12T00:40:18.737Z,2.94
2017-03-12T00:40:23.099Z,2.94
2017-03-12T00:40:27.750Z,2.95
2017-03-12T00:40:32.408Z,2.94
2017-03-12T00:40:36.918Z,2.94
2017-03-12T00:40:41.574Z,2.95
2017-03-12T00:40:46.228Z,2.95
2017-03-12T00:40:50.892Z,2.95
2017-03-12T00:40:55.571Z,2.95
2017-03-12T00:41:00.234Z,2.95
2017-03-12T00:41:05.105Z,2.95
2017-03-12T00:41:09.599Z,2.95
2017-03-12T00:41:14.281Z,2.95
2017-03-12T00:41:18.785Z,2.95
2017-03-12T00:41:23.462Z,2.95
2017-03-12T00:41:27.993Z,2.95
2017-03-12T00:41:32.655Z,2.95
2017-03-12T00:41:37.293Z,2.95
2017-03-12T00:41:41.970Z,2.95
2017-03-12T00:41:46.628Z,2.94
2017-03-12T00:41:51.297Z,2.94
2017-03-12T00:41:55.951Z,2.95
2017-03-12T00:42:00.598Z,2.95
2017-03-12T00:42:04.952Z,2.95
2017-03-12T00:42:09.464Z,2.96
2017-03-12T00:42:13.983Z,2.95
2017-03-12T00:42:18.630Z,2.95
2017-03-12T00:42:23.131Z,2.96
2017-03-12T00:42:27.518Z,2.96
2017-03-12T00:42:32.184Z,2.96
2017-03-12T00:42:36.681Z,2.96
2017-03-12T00:42:41.345Z,2.96
2017-03-12T00:42:46.005Z,2.96
2017-03-12T00:42:50.494Z,2.96
2017-03-12T00:42:55.189Z,2.97
2017-03-12T00:42:59.847Z,2.96
2017-03-12T00:43:04.797Z,2.97
2017-03-12T00:43:09.445Z,2.97
2017-03-12T00:43:14.115Z,2.96
2017-03-12T00:43:18.630Z,2.96
2017-03-12T00:43:22.995Z,2.97
2017-03-12T00:43:27.365Z,2.97
2017-03-12T00:43:32.020Z,2.97
2017-03-12T00:43:36.534Z,2.97
2017-03-12T00:43:41.235Z,2.97
2017-03-12T00:43:45.884Z,2.97
2017-03-12T00:43:50.529Z,2.97
2017-03-12T00:43:55.165Z,2.97
2017-03-12T00:43:59.812Z,2.97
2017-03-12T00:44:04.462Z,2.97
2017-03-12T00:44:08.833Z,2.98
2017-03-12T00:44:13.497Z,2.97
2017-03-12T00:44:18.167Z,2.97
2017-03-12T00:44:22.815Z,2.99
2017-03-12T00:44:27.326Z,2.98
2017-03-12T00:44:32.023Z,2.97
2017-03-12T00:44:36.665Z,2.98
2017-03-12T00:44:41.196Z,2.98
2017-03-12T00:44:45.895Z,2.98
2017-03-12T00:44:50.568Z,2.98
2017-03-12T00:44:55.238Z,2.99
2017-03-12T00:44:59.781Z,2.99
2017-03-12T00:45:04.345Z,2.99
2017-03-12T00:45:08.850Z,2.99
2017-03-12T00:45:13.522Z,2.99
2017-03-12T00:45:18.039Z,2.99
2017-03-12T00:45:22.698Z,2.98
2017-03-12T00:45:27.347Z,2.99
2017-03-12T00:45:31.886Z,2.99
2017-03-12T00:45:36.424Z,3
2017-03-12T00:45:41.111Z,2.99
2017-03-12T00:45:45.603Z,2.99
2017-03-12T00:45:50.276Z,2.99
2017-03-12T00:45:54.947Z,3
2017-03-12T00:45:59.448Z,3
2017-03-12T00:46:04.207Z,3
2017-03-12T00:46:08.730Z,3
2017-03-12T00:46:13.111Z,2.99
2017-03-12T00:46:17.775Z,3.01
2017-03-12T00:46:22.290Z,3
2017-03-12T00:46:26.811Z,3
2017-03-12T00:46:31.337Z,3.01
2017-03-12T00:46:36.010Z,3.02
2017-03-12T00:46:40.679Z,3.01
2017-03-12T00:46:45.186Z,3
2017-03-12T00:46:49.535Z,3.01
2017-03-12T00:46:54.182Z,3.02
2017-03-12T00:46:58.825Z,3.02
2017-03-12T00:47:03.702Z,3.01
2017-03-12T00:47:08.372Z,3.01
2017-03-12T00:47:12.896Z,3
2017-03-12T00:47:17.395Z,3.01
2017-03-12T00:47:22.054Z,3.01
2017-03-12T00:47:26.410Z,3.01
2017-03-12T00:47:30.940Z,3.01
2017-03-12T00:47:35.610Z,3.01
2017-03-12T00:47:40.107Z,3.01
2017-03-12T00:47:44.756Z,3.01
2017-03-12T00:47:49.427Z,3.01
2017-03-12T00:47:53.950Z,3.01
2017-03-12T00:47:58.613Z,3
2017-03-12T00:48:03.328Z,3.01
2017-03-12T00:48:07.988Z,3.01
2017-03-12T00:48:12.639Z,3.01
2017-03-12T00:48:17.296Z,3.01
2017-03-12T00:48:21.948Z,3.01
2017-03-12T00:48:26.591Z,3.01
2017-03-12T00:48:31.249Z,3.01
2017-03-12T00:48:35.784Z,3.01
2017-03-12T00:48:40.440Z,3.01
2017-03-12T00:48:44.955Z,3.01
2017-03-12T00:48:49.612Z,3.01
2017-03-12T00:48:54.286Z,3.01
2017-03-12T00:48:58.948Z,3.01
2017-03-12T00:49:03.591Z,3.01
2017-03-12T00:49:08.243Z,3.01
2017-03-12T00:49:12.897Z,3.01
2017-03-12T00:49:17.555Z,3.01
2017-03-12T00:49:21.927Z,3
2017-03-12T00:49:26.433Z,3.01
2017-03-12T00:49:31.087Z,3
2017-03-12T00:49:35.753Z,3.01
2017-03-12T00:49:40.427Z,3.01
2017-03-12T00:49:44.932Z,3.01
2017-03-12T00:49:49.597Z,3.01
2017-03-12T00:49:54.251Z,3.01
2017-03-12T00:49:58.921Z,3.02
2017-03-12T00:50:03.590Z,3.01
2017-03-12T00:50:07.951Z,3.02
2017-03-12T00:50:12.585Z,3.02
2017-03-12T00:50:17.233Z,3.02
2017-03-12T00:50:21.762Z,3.02
2017-03-12T00:50:26.400Z,3.02
2017-03-12T00:50:31.073Z,3.02
2017-03-12T00:50:35.763Z,3.02
2017-03-12T00:50:40.466Z,3.02
2017-03-12T00:50:45.125Z,3.01
2017-03-12T00:50:49.796Z,3.02
2017-03-12T00:50:54.287Z,3.02
2017-03-12T00:50:58.965Z,3.01
2017-03-12T00:51:03.465Z,3.02
2017-03-12T00:51:08.136Z,3.02
2017-03-12T00:51:12.843Z,3.02
2017-03-12T00:51:17.497Z,3.02
2017-03-12T00:51:22.161Z,3.02
2017-03-12T00:51:26.853Z,3.02
2017-03-12T00:51:31.356Z,3.02
2017-03-12T00:51:35.759Z,3.02
2017-03-12T00:51:40.436Z,3.01
2017-03-12T00:51:45.094Z,3.02
2017-03-12T00:51:49.731Z,3.02
2017-03-12T00:51:54.423Z,3.02
2017-03-12T00:51:59.075Z,3.02
2017-03-12T00:52:03.624Z,3.02
2017-03-12T00:52:08.283Z,3.02
2017-03-12T00:52:12.776Z,3.02
2017-03-12T00:52:17.277Z,3.02
2017-03-12T00:52:21.793Z,3.03
2017-03-12T00:52:26.472Z,3.02
2017-03-12T00:52:31.215Z,3.02
2017-03-12T00:52:35.862Z,3.02
2017-03-12T00:52:40.218Z,3.02
2017-03-12T00:52:44.706Z,3.03
2017-03-12T00:52:49.073Z,3.03
2017-03-12T00:52:53.750Z,3.02
2017-03-12T00:52:58.426Z,3.03
2017-03-12T00:53:02.946Z,3.03
2017-03-12T00:53:07.601Z,3.03
2017-03-12T00:53:12.256Z,3.03
2017-03-12T00:53:16.775Z,3.03
2017-03-12T00:53:21.418Z,3.03
2017-03-12T00:53:25.922Z,3.04
2017-03-12T00:53:30.590Z,3.03
2017-03-12T00:53:35.253Z,3.03
2017-03-12T00:53:39.772Z,3.03
2017-03-12T00:53:44.429Z,3.03
2017-03-12T00:53:49.100Z,3.03
2017-03-12T00:53:53.621Z,3.04
2017-03-12T00:53:58.285Z,3.03
2017-03-12T00:54:02.971Z,3.03
2017-03-12T00:54:07.634Z,3.03
2017-03-12T00:54:12.296Z,3.03
2017-03-12T00:54:16.947Z,3.04
2017-03-12T00:54:21.303Z,3.03
2017-03-12T00:54:25.815Z,3.04
2017-03-12T00:54:30.467Z,3.04
2017-03-12T00:54:35.124Z,3.03
2017-03-12T00:54:39.643Z,3.03
2017-03-12T00:54:44.297Z,3.04
2017-03-12T00:54:48.948Z,3.03
2017-03-12T00:54:53.465Z,3.04
2017-03-12T00:54:58.120Z,3.04
2017-03-12T00:55:02.759Z,3.04
2017-03-12T00:55:07.416Z,3.03
2017-03-12T00:55:12.064Z,3.03
2017-03-12T00:55:16.736Z,3.03
2017-03-12T00:55:21.259Z,3.04
2017-03-12T00:55:25.766Z,3.03
2017-03-12T00:55:30.265Z,3.04
2017-03-12T00:55:34.929Z,3.03
2017-03-12T00:55:39.442Z,3.04
2017-03-12T00:55:44.086Z,3.04
2017-03-12T00:55:48.592Z,3.03
2017-03-12T00:55:53.247Z,3.04
2017-03-12T00:55:57.899Z,3.04
2017-03-12T00:56:02.830Z,3.04
2017-03-12T00:56:07.474Z,3.04
2017-03-12T00:56:12.116Z,3.03
2017-03-12T00:56:16.771Z,3.04
2017-03-12T00:56:21.126Z,3.03
2017-03-12T00:56:25.659Z,3.04
2017-03-12T00:56:30.323Z,3.03
2017-03-12T00:56:35.017Z,3.03
2017-03-12T00:56:39.522Z,3.04
2017-03-12T00:56:44.186Z,3.03
2017-03-12T00:56:48.703Z,3.02
2017-03-12T00:56:53.359Z,3.03
2017-03-12T00:56:57.885Z,3.03
2017-03-12T00:57:02.546Z,3.03
2017-03-12T00:57:07.190Z,3.03
2017-03-12T00:57:11.853Z,3.02
2017-03-12T00:57:16.502Z,3.03
2017-03-12T00:57:21.186Z,3.03
2017-03-12T00:57:25.854Z,3.02
2017-03-12T00:57:30.526Z,3.02
2017-03-12T00:57:35.196Z,3.03
2017-03-12T00:57:39.711Z,3.02
2017-03-12T00:57:44.347Z,3.03
2017-03-12T00:57:49.025Z,3.02
2017-03-12T00:57:53.540Z,3.02
2017-03-12T00:57:58.198Z,3.02
2017-03-12T00:58:02.714Z,3.02
2017-03-12T00:58:07.371Z,3.02
2017-03-12T00:58:11.723Z,3.03
2017-03-12T00:58:16.360Z,3.02
2017-03-12T00:58:21.003Z,3.02
2017-03-12T00:58:25.659Z,3.02
2017-03-12T00:58:30.341Z,3.02
2017-03-12T00:58:34.990Z,3.02
2017-03-12T00:58:39.630Z,3.02
2017-03-12T00:58:44.156Z,3.01
2017-03-12T00:58:48.839Z,3.01
2017-03-12T00:58:53.478Z,3.01
2017-03-12T00:58:58.142Z,3.01
2017-03-12T00:59:02.942Z,3.01
2017-03-12T00:59:07.586Z,3.02
2017-03-12T00:59:12.251Z,3.01
2017-03-12T00:59:16.750Z,3.01
2017-03-12T00:59:21.271Z,3
2017-03-12T00:59:25.767Z,3.01
2017-03-12T00:59:30.307Z,3
2017-03-12T00:59:34.968Z,3.01
2017-03-12T00:59:39.636Z,2.99
2017-03-12T00:59:44.283Z,3
2017-03-12T00:59:48.799Z,2.99
2017-03-12T00:59:53.448Z,2.99
2017-03-12T00:59:58.107Z,3
2017-03-12T01:00:02.760Z,2.99
2017-03-12T01:00:07.018Z,2.99
2017-03-12T01:00:11.530Z,2.99
2017-03-12T01:00:16.208Z,2.99
2017-03-12T01:00:20.874Z,2.98
2017-03-12T01:00:25.546Z,2.98
2017-03-12T01:00:30.066Z,2.98
2017-03-12T01:00:34.729Z,2.98
2017-03-12T01:00:39.084Z,2.97
2017-03-12T01:00:43.731Z,2.97
2017-03-12T01:00:48.374Z,2.97
2017-03-12T01:00:53.051Z,2.96
2017-03-12T01:00:57.705Z,2.96
2017-03-12T01:01:02.644Z,2.96
2017-03-12T01:01:07.297Z,2.96
2017-03-12T01:01:11.800Z,2.95
2017-03-12T01:01:16.486Z,2.96
2017-03-12T01:01:21.132Z,2.96
2017-03-12T01:01:25.812Z,2.96